sensor_id;sensor_type;location;lat;lon;timestamp;P1;durP1;ratioP1;P2;durP2;ratioP2
53052;SDS011;38934;52.690;6.184;2023-08-30T00:00:14;11.98;;;9.50;;
53052;SDS011;38934;52.690;6.184;2023-08-30T00:02:42;14.40;;;11.23;;
53052;SDS011;38934;52.690;6.184;2023-08-30T00:05:10;15.20;;;11.20;;
53052;SDS011;38934;52.690;6.184;2023-08-30T00:07:36;13.27;;;9.63;;
53052;SDS011;38934;52.690;6.184;2023-08-30T00:10:02;14.27;;;10.73;;
53052;SDS011;38934;52.690;6.184;2023-08-30T00:12:28;11.55;;;9.57;;
53052;SDS011;38934;52.690;6.184;2023-08-30T00:14:54;11.85;;;9.98;;
53052;SDS011;38934;52.690;6.184;2023-08-30T00:17:20;12.20;;;9.85;;
53052;SDS011;38934;52.690;6.184;2023-08-30T00:19:47;13.80;;;10.70;;
53052;SDS011;38934;52.690;6.184;2023-08-30T00:22:13;12.38;;;10.55;;
53052;SDS011;38934;52.690;6.184;2023-08-30T00:24:39;12.68;;;9.40;;
53052;SDS011;38934;52.690;6.184;2023-08-30T00:27:05;12.45;;;10.25;;
53052;SDS011;38934;52.690;6.184;2023-08-30T00:29:30;12.18;;;9.20;;
53052;SDS011;38934;52.690;6.184;2023-08-30T00:31:56;13.35;;;10.25;;
53052;SDS011;38934;52.690;6.184;2023-08-30T00:34:22;14.73;;;10.65;;
53052;SDS011;38934;52.690;6.184;2023-08-30T00:36:47;12.35;;;9.93;;
53052;SDS011;38934;52.690;6.184;2023-08-30T00:39:13;12.98;;;9.90;;
53052;SDS011;38934;52.690;6.184;2023-08-30T00:41:39;12.25;;;9.15;;
53052;SDS011;38934;52.690;6.184;2023-08-30T00:44:05;12.20;;;10.00;;
53052;SDS011;38934;52.690;6.184;2023-08-30T00:46:31;11.13;;;9.40;;
53052;SDS011;38934;52.690;6.184;2023-08-30T00:48:58;13.90;;;10.82;;
53052;SDS011;38934;52.690;6.184;2023-08-30T00:51:28;11.93;;;9.98;;
53052;SDS011;38934;52.690;6.184;2023-08-30T00:53:54;13.80;;;10.57;;
53052;SDS011;38934;52.690;6.184;2023-08-30T00:56:20;12.60;;;10.00;;
53052;SDS011;38934;52.690;6.184;2023-08-30T00:58:47;12.95;;;11.00;;
53052;SDS011;38934;52.690;6.184;2023-08-30T01:01:14;14.15;;;10.90;;
53052;SDS011;38934;52.690;6.184;2023-08-30T01:03:43;14.35;;;10.15;;
53052;SDS011;38934;52.690;6.184;2023-08-30T01:06:09;11.52;;;9.98;;
53052;SDS011;38934;52.690;6.184;2023-08-30T01:08:35;13.45;;;10.48;;
53052;SDS011;38934;52.690;6.184;2023-08-30T01:11:06;13.88;;;11.00;;
53052;SDS011;38934;52.690;6.184;2023-08-30T01:13:33;12.00;;;10.70;;
53052;SDS011;38934;52.690;6.184;2023-08-30T01:16:05;13.57;;;10.05;;
53052;SDS011;38934;52.690;6.184;2023-08-30T01:18:32;14.15;;;10.85;;
53052;SDS011;38934;52.690;6.184;2023-08-30T01:21:01;14.68;;;10.82;;
53052;SDS011;38934;52.690;6.184;2023-08-30T01:23:40;12.95;;;10.25;;
53052;SDS011;38934;52.690;6.184;2023-08-30T01:29:08;13.82;;;10.27;;
53052;SDS011;38934;52.690;6.184;2023-08-30T01:31:36;13.50;;;10.93;;
53052;SDS011;38934;52.690;6.184;2023-08-30T01:34:03;13.52;;;10.20;;
53052;SDS011;38934;52.690;6.184;2023-08-30T01:36:30;14.10;;;10.85;;
53052;SDS011;38934;52.690;6.184;2023-08-30T01:38:57;14.18;;;12.00;;
53052;SDS011;38934;52.690;6.184;2023-08-30T01:41:24;13.00;;;11.60;;
53052;SDS011;38934;52.690;6.184;2023-08-30T01:43:51;18.33;;;11.98;;
53052;SDS011;38934;52.690;6.184;2023-08-30T01:46:18;14.93;;;10.85;;
53052;SDS011;38934;52.690;6.184;2023-08-30T01:48:46;14.43;;;11.02;;
53052;SDS011;38934;52.690;6.184;2023-08-30T01:51:13;14.40;;;10.65;;
53052;SDS011;38934;52.690;6.184;2023-08-30T01:53:41;12.70;;;10.23;;
53052;SDS011;38934;52.690;6.184;2023-08-30T01:56:09;15.90;;;11.77;;
53052;SDS011;38934;52.690;6.184;2023-08-30T01:58:35;13.00;;;10.38;;
53052;SDS011;38934;52.690;6.184;2023-08-30T02:01:01;12.13;;;9.80;;
53052;SDS011;38934;52.690;6.184;2023-08-30T02:03:27;12.10;;;9.90;;
53052;SDS011;38934;52.690;6.184;2023-08-30T02:06:26;11.07;;;9.82;;
53052;SDS011;38934;52.690;6.184;2023-08-30T02:08:59;11.60;;;9.40;;
53052;SDS011;38934;52.690;6.184;2023-08-30T02:11:30;12.40;;;9.98;;
53052;SDS011;38934;52.690;6.184;2023-08-30T02:13:59;12.45;;;10.15;;
53052;SDS011;38934;52.690;6.184;2023-08-30T02:16:26;12.35;;;9.70;;
53052;SDS011;38934;52.690;6.184;2023-08-30T02:18:53;12.63;;;10.32;;
53052;SDS011;38934;52.690;6.184;2023-08-30T02:21:20;14.82;;;11.55;;
53052;SDS011;38934;52.690;6.184;2023-08-30T02:23:49;14.50;;;11.10;;
53052;SDS011;38934;52.690;6.184;2023-08-30T02:26:17;14.07;;;10.52;;
53052;SDS011;38934;52.690;6.184;2023-08-30T02:28:44;13.93;;;10.95;;
53052;SDS011;38934;52.690;6.184;2023-08-30T02:31:10;12.75;;;10.13;;
53052;SDS011;38934;52.690;6.184;2023-08-30T02:33:35;13.18;;;10.45;;
53052;SDS011;38934;52.690;6.184;2023-08-30T02:36:02;16.92;;;11.88;;
53052;SDS011;38934;52.690;6.184;2023-08-30T02:38:28;13.57;;;11.50;;
53052;SDS011;38934;52.690;6.184;2023-08-30T02:40:54;16.15;;;11.82;;
53052;SDS011;38934;52.690;6.184;2023-08-30T02:43:20;17.08;;;12.10;;
53052;SDS011;38934;52.690;6.184;2023-08-30T02:45:45;14.52;;;11.57;;
53052;SDS011;38934;52.690;6.184;2023-08-30T02:48:11;12.38;;;10.43;;
53052;SDS011;38934;52.690;6.184;2023-08-30T02:50:36;14.52;;;10.88;;
53052;SDS011;38934;52.690;6.184;2023-08-30T02:53:02;16.33;;;11.57;;
53052;SDS011;38934;52.690;6.184;2023-08-30T02:55:30;15.50;;;11.98;;
53052;SDS011;38934;52.690;6.184;2023-08-30T02:57:56;15.25;;;12.35;;
53052;SDS011;38934;52.690;6.184;2023-08-30T03:00:21;13.90;;;10.55;;
53052;SDS011;38934;52.690;6.184;2023-08-30T03:02:47;14.15;;;11.23;;
53052;SDS011;38934;52.690;6.184;2023-08-30T03:05:13;15.60;;;11.55;;
53052;SDS011;38934;52.690;6.184;2023-08-30T03:07:39;14.90;;;12.23;;
53052;SDS011;38934;52.690;6.184;2023-08-30T03:10:05;16.63;;;12.57;;
53052;SDS011;38934;52.690;6.184;2023-08-30T03:12:31;14.43;;;10.73;;
53052;SDS011;38934;52.690;6.184;2023-08-30T03:14:58;14.80;;;11.18;;
53052;SDS011;38934;52.690;6.184;2023-08-30T03:17:23;14.15;;;11.10;;
53052;SDS011;38934;52.690;6.184;2023-08-30T03:19:51;17.27;;;12.98;;
53052;SDS011;38934;52.690;6.184;2023-08-30T03:22:20;15.73;;;11.02;;
53052;SDS011;38934;52.690;6.184;2023-08-30T03:24:46;13.23;;;11.00;;
53052;SDS011;38934;52.690;6.184;2023-08-30T03:27:12;16.20;;;12.32;;
53052;SDS011;38934;52.690;6.184;2023-08-30T03:29:37;16.25;;;12.70;;
53052;SDS011;38934;52.690;6.184;2023-08-30T03:32:03;15.20;;;12.40;;
53052;SDS011;38934;52.690;6.184;2023-08-30T03:34:29;13.38;;;11.30;;
53052;SDS011;38934;52.690;6.184;2023-08-30T03:36:55;15.13;;;11.52;;
53052;SDS011;38934;52.690;6.184;2023-08-30T03:39:21;13.20;;;10.88;;
53052;SDS011;38934;52.690;6.184;2023-08-30T03:41:47;14.98;;;10.95;;
53052;SDS011;38934;52.690;6.184;2023-08-30T03:44:13;14.45;;;11.88;;
53052;SDS011;38934;52.690;6.184;2023-08-30T03:46:38;13.07;;;11.27;;
53052;SDS011;38934;52.690;6.184;2023-08-30T03:49:04;14.05;;;11.63;;
53052;SDS011;38934;52.690;6.184;2023-08-30T03:51:30;12.40;;;10.60;;
53052;SDS011;38934;52.690;6.184;2023-08-30T03:53:55;17.20;;;12.57;;
53052;SDS011;38934;52.690;6.184;2023-08-30T03:56:22;16.95;;;11.45;;
53052;SDS011;38934;52.690;6.184;2023-08-30T03:58:48;14.82;;;12.07;;
53052;SDS011;38934;52.690;6.184;2023-08-30T04:01:13;14.70;;;11.75;;
53052;SDS011;38934;52.690;6.184;2023-08-30T04:03:39;12.65;;;9.70;;
53052;SDS011;38934;52.690;6.184;2023-08-30T04:06:04;13.25;;;11.02;;
53052;SDS011;38934;52.690;6.184;2023-08-30T04:08:30;13.48;;;10.75;;
53052;SDS011;38934;52.690;6.184;2023-08-30T04:10:56;12.68;;;10.38;;
53052;SDS011;38934;52.690;6.184;2023-08-30T04:13:22;14.30;;;11.25;;
53052;SDS011;38934;52.690;6.184;2023-08-30T04:15:48;13.95;;;10.80;;
53052;SDS011;38934;52.690;6.184;2023-08-30T04:18:13;14.65;;;11.40;;
53052;SDS011;38934;52.690;6.184;2023-08-30T04:20:43;15.00;;;10.57;;
53052;SDS011;38934;52.690;6.184;2023-08-30T04:23:10;13.32;;;9.73;;
53052;SDS011;38934;52.690;6.184;2023-08-30T04:25:36;13.52;;;10.20;;
53052;SDS011;38934;52.690;6.184;2023-08-30T04:28:02;15.80;;;11.57;;
53052;SDS011;38934;52.690;6.184;2023-08-30T04:30:28;13.35;;;10.32;;
53052;SDS011;38934;52.690;6.184;2023-08-30T04:32:54;14.27;;;11.25;;
53052;SDS011;38934;52.690;6.184;2023-08-30T04:35:19;13.10;;;10.30;;
53052;SDS011;38934;52.690;6.184;2023-08-30T04:37:45;15.30;;;11.02;;
53052;SDS011;38934;52.690;6.184;2023-08-30T04:40:11;12.18;;;10.05;;
53052;SDS011;38934;52.690;6.184;2023-08-30T04:42:37;15.20;;;11.10;;
53052;SDS011;38934;52.690;6.184;2023-08-30T04:45:05;14.20;;;10.48;;
53052;SDS011;38934;52.690;6.184;2023-08-30T04:47:31;14.25;;;10.82;;
53052;SDS011;38934;52.690;6.184;2023-08-30T04:49:57;16.90;;;12.55;;
53052;SDS011;38934;52.690;6.184;2023-08-30T04:52:23;15.07;;;10.88;;
53052;SDS011;38934;52.690;6.184;2023-08-30T04:54:48;15.30;;;11.55;;
53052;SDS011;38934;52.690;6.184;2023-08-30T04:57:15;14.73;;;11.02;;
53052;SDS011;38934;52.690;6.184;2023-08-30T04:59:41;15.13;;;11.32;;
53052;SDS011;38934;52.690;6.184;2023-08-30T05:02:08;15.38;;;11.18;;
53052;SDS011;38934;52.690;6.184;2023-08-30T05:04:34;17.23;;;12.52;;
53052;SDS011;38934;52.690;6.184;2023-08-30T05:06:59;16.77;;;12.50;;
53052;SDS011;38934;52.690;6.184;2023-08-30T05:09:25;14.98;;;11.77;;
53052;SDS011;38934;52.690;6.184;2023-08-30T05:11:51;14.93;;;11.32;;
53052;SDS011;38934;52.690;6.184;2023-08-30T05:14:17;14.88;;;12.23;;
53052;SDS011;38934;52.690;6.184;2023-08-30T05:16:43;15.65;;;11.52;;
53052;SDS011;38934;52.690;6.184;2023-08-30T05:19:08;18.88;;;13.15;;
53052;SDS011;38934;52.690;6.184;2023-08-30T05:21:34;16.23;;;12.15;;
53052;SDS011;38934;52.690;6.184;2023-08-30T05:24:00;14.63;;;11.13;;
53052;SDS011;38934;52.690;6.184;2023-08-30T05:26:25;14.70;;;10.93;;
53052;SDS011;38934;52.690;6.184;2023-08-30T05:28:51;15.38;;;10.93;;
53052;SDS011;38934;52.690;6.184;2023-08-30T05:31:17;16.35;;;11.45;;
53052;SDS011;38934;52.690;6.184;2023-08-30T05:33:42;16.23;;;11.50;;
53052;SDS011;38934;52.690;6.184;2023-08-30T05:36:08;16.58;;;11.90;;
53052;SDS011;38934;52.690;6.184;2023-08-30T05:38:34;14.30;;;11.10;;
53052;SDS011;38934;52.690;6.184;2023-08-30T05:40:59;14.25;;;11.02;;
53052;SDS011;38934;52.690;6.184;2023-08-30T05:43:25;20.55;;;12.95;;
53052;SDS011;38934;52.690;6.184;2023-08-30T05:45:50;16.73;;;12.32;;
53052;SDS011;38934;52.690;6.184;2023-08-30T05:48:16;18.48;;;12.60;;
53052;SDS011;38934;52.690;6.184;2023-08-30T05:50:42;17.85;;;13.05;;
53052;SDS011;38934;52.690;6.184;2023-08-30T05:53:07;17.15;;;12.52;;
53052;SDS011;38934;52.690;6.184;2023-08-30T05:55:33;15.20;;;11.50;;
53052;SDS011;38934;52.690;6.184;2023-08-30T05:57:59;16.15;;;11.90;;
53052;SDS011;38934;52.690;6.184;2023-08-30T06:00:24;17.50;;;12.60;;
53052;SDS011;38934;52.690;6.184;2023-08-30T06:02:51;20.35;;;13.20;;
53052;SDS011;38934;52.690;6.184;2023-08-30T06:05:17;15.85;;;11.73;;
53052;SDS011;38934;52.690;6.184;2023-08-30T06:07:43;19.13;;;12.02;;
53052;SDS011;38934;52.690;6.184;2023-08-30T06:10:09;18.13;;;12.20;;
53052;SDS011;38934;52.690;6.184;2023-08-30T06:12:35;16.55;;;12.07;;
53052;SDS011;38934;52.690;6.184;2023-08-30T06:15:01;19.17;;;11.82;;
53052;SDS011;38934;52.690;6.184;2023-08-30T06:17:26;15.98;;;11.55;;
53052;SDS011;38934;52.690;6.184;2023-08-30T06:19:52;16.23;;;10.63;;
53052;SDS011;38934;52.690;6.184;2023-08-30T06:22:18;16.75;;;11.05;;
53052;SDS011;38934;52.690;6.184;2023-08-30T06:24:43;16.15;;;11.32;;
53052;SDS011;38934;52.690;6.184;2023-08-30T06:27:09;15.15;;;10.75;;
53052;SDS011;38934;52.690;6.184;2023-08-30T06:29:35;14.88;;;10.85;;
53052;SDS011;38934;52.690;6.184;2023-08-30T06:32:01;16.45;;;11.45;;
53052;SDS011;38934;52.690;6.184;2023-08-30T06:34:27;16.17;;;11.35;;
53052;SDS011;38934;52.690;6.184;2023-08-30T06:36:53;13.98;;;10.90;;
53052;SDS011;38934;52.690;6.184;2023-08-30T06:39:19;14.88;;;11.07;;
53052;SDS011;38934;52.690;6.184;2023-08-30T06:41:47;16.88;;;11.18;;
53052;SDS011;38934;52.690;6.184;2023-08-30T06:44:16;14.55;;;10.32;;
53052;SDS011;38934;52.690;6.184;2023-08-30T06:46:44;15.20;;;10.20;;
53052;SDS011;38934;52.690;6.184;2023-08-30T06:49:37;22.75;;;11.63;;
53052;SDS011;38934;52.690;6.184;2023-08-30T06:52:03;15.10;;;11.48;;
53052;SDS011;38934;52.690;6.184;2023-08-30T06:54:32;14.10;;;9.85;;
53052;SDS011;38934;52.690;6.184;2023-08-30T06:56:59;15.55;;;10.68;;
53052;SDS011;38934;52.690;6.184;2023-08-30T06:59:25;15.73;;;10.43;;
53052;SDS011;38934;52.690;6.184;2023-08-30T07:01:51;12.55;;;9.73;;
53052;SDS011;38934;52.690;6.184;2023-08-30T07:04:17;16.92;;;10.52;;
53052;SDS011;38934;52.690;6.184;2023-08-30T07:06:43;14.32;;;10.25;;
53052;SDS011;38934;52.690;6.184;2023-08-30T07:09:09;15.25;;;11.18;;
53052;SDS011;38934;52.690;6.184;2023-08-30T07:11:36;14.07;;;10.75;;
53052;SDS011;38934;52.690;6.184;2023-08-30T07:14:02;12.68;;;9.60;;
53052;SDS011;38934;52.690;6.184;2023-08-30T07:16:28;14.50;;;11.32;;
53052;SDS011;38934;52.690;6.184;2023-08-30T07:18:53;14.80;;;10.30;;
53052;SDS011;38934;52.690;6.184;2023-08-30T07:21:19;15.05;;;10.73;;
53052;SDS011;38934;52.690;6.184;2023-08-30T07:23:44;14.70;;;10.77;;
53052;SDS011;38934;52.690;6.184;2023-08-30T07:26:10;14.63;;;11.05;;
53052;SDS011;38934;52.690;6.184;2023-08-30T07:28:36;15.15;;;10.90;;
53052;SDS011;38934;52.690;6.184;2023-08-30T07:31:02;15.60;;;11.77;;
53052;SDS011;38934;52.690;6.184;2023-08-30T07:33:28;14.00;;;11.38;;
53052;SDS011;38934;52.690;6.184;2023-08-30T07:35:54;13.90;;;11.48;;
53052;SDS011;38934;52.690;6.184;2023-08-30T07:38:20;14.88;;;10.77;;
53052;SDS011;38934;52.690;6.184;2023-08-30T07:40:45;13.40;;;10.02;;
53052;SDS011;38934;52.690;6.184;2023-08-30T07:43:11;14.55;;;11.23;;
53052;SDS011;38934;52.690;6.184;2023-08-30T07:45:36;15.23;;;12.18;;
53052;SDS011;38934;52.690;6.184;2023-08-30T07:48:02;12.95;;;10.52;;
53052;SDS011;38934;52.690;6.184;2023-08-30T07:50:28;13.45;;;10.18;;
53052;SDS011;38934;52.690;6.184;2023-08-30T07:52:53;15.18;;;10.88;;
53052;SDS011;38934;52.690;6.184;2023-08-30T07:55:19;15.80;;;11.40;;
53052;SDS011;38934;52.690;6.184;2023-08-30T07:57:45;14.45;;;11.32;;
53052;SDS011;38934;52.690;6.184;2023-08-30T08:00:11;13.15;;;10.02;;
53052;SDS011;38934;52.690;6.184;2023-08-30T08:02:37;16.55;;;10.98;;
53052;SDS011;38934;52.690;6.184;2023-08-30T08:05:04;13.88;;;10.75;;
53052;SDS011;38934;52.690;6.184;2023-08-30T08:07:29;14.75;;;11.18;;
53052;SDS011;38934;52.690;6.184;2023-08-30T08:09:56;14.05;;;10.95;;
53052;SDS011;38934;52.690;6.184;2023-08-30T08:12:22;16.55;;;11.48;;
53052;SDS011;38934;52.690;6.184;2023-08-30T08:14:47;16.20;;;11.13;;
53052;SDS011;38934;52.690;6.184;2023-08-30T08:17:13;16.33;;;11.70;;
53052;SDS011;38934;52.690;6.184;2023-08-30T08:19:38;16.60;;;10.93;;
53052;SDS011;38934;52.690;6.184;2023-08-30T08:22:05;15.25;;;10.77;;
53052;SDS011;38934;52.690;6.184;2023-08-30T08:24:31;14.15;;;11.05;;
53052;SDS011;38934;52.690;6.184;2023-08-30T08:26:57;15.15;;;10.50;;
53052;SDS011;38934;52.690;6.184;2023-08-30T08:29:23;14.65;;;10.60;;
53052;SDS011;38934;52.690;6.184;2023-08-30T08:31:48;14.55;;;10.98;;
53052;SDS011;38934;52.690;6.184;2023-08-30T08:34:14;16.75;;;11.23;;
53052;SDS011;38934;52.690;6.184;2023-08-30T08:36:41;16.60;;;11.20;;
53052;SDS011;38934;52.690;6.184;2023-08-30T08:39:07;16.52;;;11.65;;
53052;SDS011;38934;52.690;6.184;2023-08-30T08:41:41;15.85;;;11.27;;
53052;SDS011;38934;52.690;6.184;2023-08-30T08:44:08;16.23;;;11.75;;
53052;SDS011;38934;52.690;6.184;2023-08-30T08:46:38;20.50;;;12.23;;
53052;SDS011;38934;52.690;6.184;2023-08-30T08:49:08;16.55;;;12.02;;
53052;SDS011;38934;52.690;6.184;2023-08-30T08:51:36;18.13;;;11.68;;
53052;SDS011;38934;52.690;6.184;2023-08-30T08:54:03;17.15;;;11.55;;
53052;SDS011;38934;52.690;6.184;2023-08-30T08:56:30;19.08;;;11.05;;
53052;SDS011;38934;52.690;6.184;2023-08-30T08:58:57;18.83;;;12.02;;
53052;SDS011;38934;52.690;6.184;2023-08-30T09:01:23;17.73;;;12.50;;
53052;SDS011;38934;52.690;6.184;2023-08-30T09:03:50;17.45;;;12.30;;
53052;SDS011;38934;52.690;6.184;2023-08-30T09:06:15;17.08;;;12.10;;
53052;SDS011;38934;52.690;6.184;2023-08-30T09:08:42;16.35;;;11.18;;
53052;SDS011;38934;52.690;6.184;2023-08-30T09:11:08;17.75;;;11.95;;
53052;SDS011;38934;52.690;6.184;2023-08-30T09:13:33;16.08;;;10.88;;
53052;SDS011;38934;52.690;6.184;2023-08-30T09:15:59;12.80;;;10.43;;
53052;SDS011;38934;52.690;6.184;2023-08-30T09:18:25;14.60;;;10.63;;
53052;SDS011;38934;52.690;6.184;2023-08-30T09:21:04;13.77;;;9.45;;
53052;SDS011;38934;52.690;6.184;2023-08-30T09:23:38;12.93;;;8.80;;
53052;SDS011;38934;52.690;6.184;2023-08-30T09:26:04;12.55;;;8.95;;
53052;SDS011;38934;52.690;6.184;2023-08-30T09:28:30;13.43;;;9.32;;
53052;SDS011;38934;52.690;6.184;2023-08-30T09:30:57;12.32;;;8.75;;
53052;SDS011;38934;52.690;6.184;2023-08-30T09:33:32;10.25;;;7.45;;
53052;SDS011;38934;52.690;6.184;2023-08-30T09:38:24;11.32;;;8.55;;
53052;SDS011;38934;52.690;6.184;2023-08-30T09:40:50;11.15;;;8.38;;
53052;SDS011;38934;52.690;6.184;2023-08-30T09:43:19;12.98;;;8.57;;
53052;SDS011;38934;52.690;6.184;2023-08-30T09:45:50;11.35;;;8.82;;
53052;SDS011;38934;52.690;6.184;2023-08-30T09:48:16;10.68;;;8.52;;
53052;SDS011;38934;52.690;6.184;2023-08-30T09:50:47;11.05;;;8.75;;
53052;SDS011;38934;52.690;6.184;2023-08-30T09:53:40;12.82;;;8.68;;
53052;SDS011;38934;52.690;6.184;2023-08-30T09:56:35;12.15;;;9.73;;
53052;SDS011;38934;52.690;6.184;2023-08-30T09:59:10;14.23;;;10.00;;
53052;SDS011;38934;52.690;6.184;2023-08-30T10:01:38;13.60;;;9.23;;
53052;SDS011;38934;52.690;6.184;2023-08-30T10:04:04;12.63;;;9.45;;
53052;SDS011;38934;52.690;6.184;2023-08-30T10:06:33;12.93;;;9.05;;
53052;SDS011;38934;52.690;6.184;2023-08-30T10:08:58;12.85;;;10.02;;
53052;SDS011;38934;52.690;6.184;2023-08-30T10:11:28;11.55;;;9.10;;
53052;SDS011;38934;52.690;6.184;2023-08-30T10:13:55;12.75;;;10.10;;
53052;SDS011;38934;52.690;6.184;2023-08-30T10:16:22;13.68;;;9.65;;
53052;SDS011;38934;52.690;6.184;2023-08-30T10:18:58;12.95;;;9.98;;
53052;SDS011;38934;52.690;6.184;2023-08-30T10:21:28;12.93;;;9.65;;
53052;SDS011;38934;52.690;6.184;2023-08-30T10:23:55;11.98;;;9.52;;
53052;SDS011;38934;52.690;6.184;2023-08-30T10:26:26;11.68;;;9.50;;
53052;SDS011;38934;52.690;6.184;2023-08-30T10:28:53;11.70;;;9.35;;
53052;SDS011;38934;52.690;6.184;2023-08-30T10:31:21;10.40;;;8.75;;
53052;SDS011;38934;52.690;6.184;2023-08-30T10:33:50;13.00;;;9.25;;
53052;SDS011;38934;52.690;6.184;2023-08-30T10:36:26;13.52;;;9.88;;
53052;SDS011;38934;52.690;6.184;2023-08-30T10:38:54;12.43;;;10.27;;
53052;SDS011;38934;52.690;6.184;2023-08-30T10:41:21;12.18;;;9.55;;
53052;SDS011;38934;52.690;6.184;2023-08-30T10:43:51;12.30;;;10.05;;
53052;SDS011;38934;52.690;6.184;2023-08-30T10:46:28;11.93;;;9.45;;
53052;SDS011;38934;52.690;6.184;2023-08-30T10:49:13;12.70;;;10.10;;
53052;SDS011;38934;52.690;6.184;2023-08-30T10:51:40;12.90;;;8.90;;
53052;SDS011;38934;52.690;6.184;2023-08-30T10:54:15;12.38;;;9.10;;
53052;SDS011;38934;52.690;6.184;2023-08-30T10:56:48;12.07;;;9.77;;
53052;SDS011;38934;52.690;6.184;2023-08-30T10:59:22;13.50;;;9.52;;
53052;SDS011;38934;52.690;6.184;2023-08-30T11:01:48;11.77;;;8.73;;
53052;SDS011;38934;52.690;6.184;2023-08-30T11:04:17;13.00;;;9.63;;
53052;SDS011;38934;52.690;6.184;2023-08-30T11:06:47;10.88;;;9.50;;
53052;SDS011;38934;52.690;6.184;2023-08-30T11:09:15;13.20;;;9.50;;
53052;SDS011;38934;52.690;6.184;2023-08-30T11:11:47;11.75;;;9.48;;
53052;SDS011;38934;52.690;6.184;2023-08-30T11:14:14;12.27;;;9.05;;
53052;SDS011;38934;52.690;6.184;2023-08-30T11:16:40;14.43;;;11.40;;
53052;SDS011;38934;52.690;6.184;2023-08-30T11:19:07;12.75;;;10.35;;
53052;SDS011;38934;52.690;6.184;2023-08-30T11:21:35;15.15;;;11.45;;
53052;SDS011;38934;52.690;6.184;2023-08-30T11:24:03;12.30;;;10.35;;
53052;SDS011;38934;52.690;6.184;2023-08-30T11:26:29;14.50;;;10.93;;
53052;SDS011;38934;52.690;6.184;2023-08-30T11:28:54;12.38;;;10.43;;
53052;SDS011;38934;52.690;6.184;2023-08-30T11:31:24;13.10;;;9.82;;
53052;SDS011;38934;52.690;6.184;2023-08-30T11:33:53;13.15;;;10.50;;
53052;SDS011;38934;52.690;6.184;2023-08-30T11:36:25;16.35;;;11.25;;
53052;SDS011;38934;52.690;6.184;2023-08-30T11:38:53;11.47;;;8.83;;
53052;SDS011;38934;52.690;6.184;2023-08-30T11:41:22;13.80;;;10.95;;
53052;SDS011;38934;52.690;6.184;2023-08-30T11:43:51;12.85;;;10.35;;
53052;SDS011;38934;52.690;6.184;2023-08-30T11:46:18;15.10;;;11.27;;
53052;SDS011;38934;52.690;6.184;2023-08-30T11:48:45;14.52;;;11.85;;
53052;SDS011;38934;52.690;6.184;2023-08-30T11:51:12;13.93;;;11.15;;
53052;SDS011;38934;52.690;6.184;2023-08-30T11:53:38;10.18;;;8.95;;
53052;SDS011;38934;52.690;6.184;2023-08-30T11:56:07;11.63;;;10.43;;
53052;SDS011;38934;52.690;6.184;2023-08-30T11:58:36;11.38;;;9.63;;
53052;SDS011;38934;52.690;6.184;2023-08-30T12:01:02;10.35;;;8.82;;
53052;SDS011;38934;52.690;6.184;2023-08-30T12:03:32;8.80;;;7.57;;
53052;SDS011;38934;52.690;6.184;2023-08-30T12:05:58;9.98;;;8.57;;
53052;SDS011;38934;52.690;6.184;2023-08-30T12:08:30;10.20;;;8.65;;
53052;SDS011;38934;52.690;6.184;2023-08-30T12:10:57;9.95;;;8.57;;
53052;SDS011;38934;52.690;6.184;2023-08-30T12:13:29;9.15;;;8.00;;
53052;SDS011;38934;52.690;6.184;2023-08-30T12:15:57;8.15;;;7.35;;
53052;SDS011;38934;52.690;6.184;2023-08-30T12:18:25;8.88;;;7.68;;
53052;SDS011;38934;52.690;6.184;2023-08-30T12:20:55;9.30;;;7.50;;
53052;SDS011;38934;52.690;6.184;2023-08-30T12:23:31;7.95;;;6.90;;
53052;SDS011;38934;52.690;6.184;2023-08-30T12:28:29;7.75;;;6.95;;
53052;SDS011;38934;52.690;6.184;2023-08-30T12:31:00;8.18;;;7.38;;
53052;SDS011;38934;52.690;6.184;2023-08-30T12:33:26;8.70;;;7.18;;
53052;SDS011;38934;52.690;6.184;2023-08-30T12:35:55;8.13;;;6.57;;
53052;SDS011;38934;52.690;6.184;2023-08-30T12:38:22;7.53;;;6.82;;
53052;SDS011;38934;52.690;6.184;2023-08-30T12:40:53;7.53;;;6.78;;
53052;SDS011;38934;52.690;6.184;2023-08-30T12:43:20;8.52;;;7.50;;
53052;SDS011;38934;52.690;6.184;2023-08-30T12:45:46;8.95;;;6.97;;
53052;SDS011;38934;52.690;6.184;2023-08-30T12:48:13;7.70;;;6.90;;
53052;SDS011;38934;52.690;6.184;2023-08-30T12:50:40;9.70;;;8.70;;
53052;SDS011;38934;52.690;6.184;2023-08-30T12:53:08;9.23;;;8.27;;
53052;SDS011;38934;52.690;6.184;2023-08-30T12:55:33;12.32;;;8.93;;
53052;SDS011;38934;52.690;6.184;2023-08-30T12:58:00;9.75;;;8.75;;
53052;SDS011;38934;52.690;6.184;2023-08-30T13:00:26;10.18;;;8.77;;
53052;SDS011;38934;52.690;6.184;2023-08-30T13:02:52;10.18;;;8.73;;
53052;SDS011;38934;52.690;6.184;2023-08-30T13:05:18;11.00;;;9.15;;
53052;SDS011;38934;52.690;6.184;2023-08-30T13:07:44;10.52;;;8.75;;
53052;SDS011;38934;52.690;6.184;2023-08-30T13:10:10;11.05;;;9.50;;
53052;SDS011;38934;52.690;6.184;2023-08-30T13:12:36;10.32;;;8.80;;
53052;SDS011;38934;52.690;6.184;2023-08-30T13:15:05;9.20;;;8.30;;
53052;SDS011;38934;52.690;6.184;2023-08-30T13:17:32;9.65;;;8.55;;
53052;SDS011;38934;52.690;6.184;2023-08-30T13:19:58;8.88;;;7.97;;
53052;SDS011;38934;52.690;6.184;2023-08-30T13:22:24;8.80;;;7.90;;
53052;SDS011;38934;52.690;6.184;2023-08-30T13:24:50;9.30;;;8.30;;
53052;SDS011;38934;52.690;6.184;2023-08-30T13:27:17;8.85;;;7.88;;
53052;SDS011;38934;52.690;6.184;2023-08-30T13:29:43;11.43;;;7.75;;
53052;SDS011;38934;52.690;6.184;2023-08-30T13:32:08;7.35;;;6.47;;
53052;SDS011;38934;52.690;6.184;2023-08-30T13:34:34;5.22;;;4.35;;
53052;SDS011;38934;52.690;6.184;2023-08-30T13:37:00;4.80;;;4.10;;
53052;SDS011;38934;52.690;6.184;2023-08-30T13:39:25;4.78;;;4.00;;
53052;SDS011;38934;52.690;6.184;2023-08-30T13:41:51;3.40;;;3.05;;
53052;SDS011;38934;52.690;6.184;2023-08-30T13:44:16;5.55;;;3.55;;
53052;SDS011;38934;52.690;6.184;2023-08-30T13:46:43;6.28;;;3.55;;
53052;SDS011;38934;52.690;6.184;2023-08-30T13:49:09;5.80;;;3.85;;
53052;SDS011;38934;52.690;6.184;2023-08-30T13:51:35;5.40;;;3.70;;
53052;SDS011;38934;52.690;6.184;2023-08-30T13:54:01;5.68;;;3.92;;
53052;SDS011;38934;52.690;6.184;2023-08-30T13:56:27;6.32;;;3.53;;
53052;SDS011;38934;52.690;6.184;2023-08-30T13:58:53;6.00;;;3.10;;
53052;SDS011;38934;52.690;6.184;2023-08-30T14:01:20;5.43;;;3.13;;
53052;SDS011;38934;52.690;6.184;2023-08-30T14:03:46;5.03;;;3.15;;
53052;SDS011;38934;52.690;6.184;2023-08-30T14:06:11;4.60;;;3.10;;
53052;SDS011;38934;52.690;6.184;2023-08-30T14:08:37;5.93;;;3.00;;
53052;SDS011;38934;52.690;6.184;2023-08-30T14:11:03;5.68;;;3.40;;
53052;SDS011;38934;52.690;6.184;2023-08-30T14:13:29;5.22;;;3.10;;
53052;SDS011;38934;52.690;6.184;2023-08-30T14:15:57;4.82;;;3.22;;
53052;SDS011;38934;52.690;6.184;2023-08-30T14:18:28;7.13;;;3.25;;
53052;SDS011;38934;52.690;6.184;2023-08-30T14:20:58;6.88;;;3.55;;
53052;SDS011;38934;52.690;6.184;2023-08-30T14:23:25;6.63;;;3.28;;
53052;SDS011;38934;52.690;6.184;2023-08-30T14:28:43;5.38;;;2.60;;
53052;SDS011;38934;52.690;6.184;2023-08-30T14:31:09;3.55;;;2.40;;
53052;SDS011;38934;52.690;6.184;2023-08-30T14:33:36;7.75;;;2.67;;
53052;SDS011;38934;52.690;6.184;2023-08-30T14:36:02;6.00;;;2.50;;
53052;SDS011;38934;52.690;6.184;2023-08-30T14:38:28;7.45;;;2.63;;